createdAt,value
2018-05-07T00:00:14.107Z,0.00
2018-05-07T00:01:14.075Z,0.00
2018-05-07T00:02:13.917Z,0.00
2018-05-07T00:03:13.843Z,0.00
2018-05-07T00:04:13.756Z,0.00
2018-05-07T00:05:13.684Z,0.00
2018-05-07T00:06:13.762Z,0.00
2018-05-07T00:07:13.520Z,0.00
2018-05-07T00:08:13.468Z,0.00
2018-05-07T00:09:13.379Z,0.00
2018-05-07T00:10:13.339Z,0.00
2018-05-07T00:11:13.206Z,0.00
2018-05-07T00:12:13.132Z,0.00
2018-05-07T00:13:13.076Z,0.00
2018-05-07T00:14:12.968Z,0.00
2018-05-07T00:15:12.882Z,0.00
2018-05-07T00:16:12.807Z,0.00
2018-05-07T00:17:12.734Z,0.00
2018-05-07T00:18:12.647Z,0.00
2018-05-07T00:19:12.572Z,0.00
2018-05-07T00:20:12.496Z,0.00
2018-05-07T00:21:12.407Z,0.00
2018-05-07T00:22:12.336Z,0.00
2018-05-07T00:23:12.264Z,0.00
2018-05-07T00:24:12.169Z,0.00
2018-05-07T00:25:12.097Z,0.00
2018-05-07T00:26:12.025Z,0.00
2018-05-07T00:27:11.936Z,0.00
2018-05-07T00:28:11.860Z,0.00
2018-05-07T00:29:11.773Z,0.00
2018-05-07T00:30:11.700Z,0.00
2018-05-07T00:31:11.625Z,0.00
2018-05-07T00:32:11.536Z,0.00
2018-05-07T00:33:11.515Z,0.00
2018-05-07T00:34:11.385Z,0.00
2018-05-07T00:35:11.296Z,0.00
2018-05-07T00:36:11.222Z,0.00
2018-05-07T00:37:11.152Z,0.00
2018-05-07T00:38:11.061Z,0.00
2018-05-07T00:39:10.987Z,0.00
2018-05-07T00:40:10.899Z,0.00
2018-05-07T00:41:10.835Z,0.00
2018-05-07T00:42:10.747Z,0.00
2018-05-07T00:43:10.660Z,0.00
2018-05-07T00:44:10.585Z,0.00
2018-05-07T00:45:10.512Z,0.00
2018-05-07T00:46:10.437Z,0.00
2018-05-07T00:47:10.350Z,0.00
2018-05-07T00:48:10.262Z,0.00
2018-05-07T00:49:10.186Z,0.00
2018-05-07T00:50:10.111Z,0.00
2018-05-07T00:51:10.036Z,0.00
2018-05-07T00:52:09.948Z,0.00
2018-05-07T00:53:09.876Z,0.00
2018-05-07T00:54:09.788Z,0.00
2018-05-07T00:55:09.714Z,0.00
2018-05-07T00:56:09.639Z,0.00
2018-05-07T00:57:09.549Z,0.00
2018-05-07T00:58:09.474Z,0.00
2018-05-07T00:59:09.387Z,0.00
2018-05-07T01:00:09.312Z,0.00
2018-05-07T01:01:09.239Z,0.00
2018-05-07T01:02:09.149Z,0.00
2018-05-07T01:03:09.074Z,0.00
2018-05-07T01:04:09.001Z,0.00
2018-05-07T01:05:08.914Z,0.00
2018-05-07T01:06:08.840Z,0.00
2018-05-07T01:07:08.751Z,0.00
2018-05-07T01:08:08.677Z,0.00
2018-05-07T01:09:08.588Z,0.00
2018-05-07T01:10:08.513Z,0.00
2018-05-07T01:11:08.438Z,0.00
2018-05-07T01:12:08.351Z,0.00
2018-05-07T01:13:08.290Z,0.00
2018-05-07T01:14:08.202Z,0.00
2018-05-07T01:15:08.122Z,0.00
2018-05-07T01:16:08.046Z,0.00
2018-05-07T01:17:07.953Z,0.00
2018-05-07T01:18:07.877Z,0.00
2018-05-07T01:19:07.803Z,0.00
2018-05-07T01:20:07.716Z,0.00
2018-05-07T01:21:07.639Z,0.00
2018-05-07T01:22:07.555Z,0.00
2018-05-07T01:23:07.477Z,0.00
2018-05-07T01:24:07.401Z,0.00
2018-05-07T01:25:07.317Z,0.00
2018-05-07T01:26:07.242Z,0.00
2018-05-07T01:27:07.154Z,0.00
2018-05-07T01:28:07.079Z,0.00
2018-05-07T01:29:07.002Z,0.00
2018-05-07T01:30:06.916Z,0.00
2018-05-07T01:31:06.840Z,0.00
2018-05-07T01:32:06.753Z,0.00
2018-05-07T01:33:06.677Z,0.00
2018-05-07T01:34:06.607Z,0.00
2018-05-07T01:35:06.516Z,0.00
2018-05-07T01:36:06.441Z,0.00
2018-05-07T01:37:06.386Z,0.00
2018-05-07T01:38:06.280Z,0.00
2018-05-07T01:39:06.205Z,0.00
2018-05-07T01:40:06.119Z,0.00
2018-05-07T01:41:06.042Z,0.00
2018-05-07T01:42:05.970Z,0.00
2018-05-07T01:43:05.878Z,0.00
2018-05-07T01:44:05.803Z,0.00
2018-05-07T01:45:05.720Z,0.00
2018-05-07T01:46:05.645Z,0.00
2018-05-07T01:47:05.565Z,0.00
2018-05-07T01:48:05.481Z,0.00
2018-05-07T01:49:05.407Z,0.00
2018-05-07T01:50:05.319Z,0.00
2018-05-07T01:51:05.245Z,0.00
2018-05-07T01:52:05.158Z,0.00
2018-05-07T01:53:05.080Z,0.00
2018-05-07T01:54:05.006Z,0.00
2018-05-07T01:55:04.918Z,0.00
2018-05-07T01:56:04.844Z,0.00
2018-05-07T01:57:04.759Z,0.00
2018-05-07T01:58:04.683Z,0.00
2018-05-07T01:59:04.623Z,0.00
2018-05-07T02:00:04.521Z,0.00
2018-05-07T02:01:04.445Z,0.00
2018-05-07T02:02:04.357Z,0.00
2018-05-07T02:03:04.281Z,0.00
2018-05-07T02:04:04.206Z,0.00
2018-05-07T02:05:04.120Z,0.00
2018-05-07T02:06:04.044Z,0.00
2018-05-07T02:07:03.957Z,0.00
2018-05-07T02:08:03.881Z,0.00
2018-05-07T02:09:03.809Z,0.00
2018-05-07T02:10:03.723Z,0.00
2018-05-07T02:11:03.651Z,0.00
2018-05-07T02:12:03.559Z,0.00
2018-05-07T02:13:03.495Z,0.00
2018-05-07T02:14:03.407Z,0.00
2018-05-07T02:15:03.324Z,0.00
2018-05-07T02:16:03.247Z,0.00
2018-05-07T02:17:03.159Z,0.00
2018-05-07T02:18:03.086Z,0.00
2018-05-07T02:19:02.998Z,0.00
2018-05-07T02:20:02.923Z,0.00
2018-05-07T02:21:02.849Z,0.00
2018-05-07T02:22:02.760Z,0.00
2018-05-07T02:23:02.685Z,0.00
2018-05-07T02:24:02.598Z,0.00
2018-05-07T02:25:02.522Z,0.00
2018-05-07T02:26:02.447Z,0.00
2018-05-07T02:27:02.359Z,0.00
2018-05-07T02:28:02.283Z,0.00
2018-05-07T02:29:02.199Z,0.00
2018-05-07T02:30:02.125Z,0.00
2018-05-07T02:31:02.039Z,0.00
2018-05-07T02:32:01.967Z,0.00
2018-05-07T02:33:01.885Z,0.00
2018-05-07T02:34:01.798Z,0.00
2018-05-07T02:35:01.723Z,0.00
2018-05-07T02:36:01.634Z,0.00
2018-05-07T02:37:01.560Z,0.00
2018-05-07T02:38:01.473Z,0.00
2018-05-07T02:39:01.449Z,0.00
2018-05-07T02:40:01.323Z,0.00
2018-05-07T02:41:01.237Z,0.00
2018-05-07T02:42:01.162Z,0.00
2018-05-07T02:43:01.088Z,0.00
2018-05-07T02:44:01.002Z,0.00
2018-05-07T02:45:00.926Z,0.00
2018-05-07T02:46:00.836Z,0.00
2018-05-07T02:47:00.760Z,0.00
2018-05-07T02:48:00.685Z,0.00
2018-05-07T02:49:00.600Z,0.00
2018-05-07T02:50:00.514Z,0.00
2018-05-07T02:51:00.437Z,4.00
2018-05-07T02:52:00.351Z,0.00
2018-05-07T02:53:00.279Z,0.00
2018-05-07T02:54:00.188Z,4.00
2018-05-07T02:55:00.111Z,4.00
2018-05-07T02:56:00.037Z,4.00
2018-05-07T02:56:59.952Z,4.00
2018-05-07T02:57:59.877Z,4.00
2018-05-07T02:58:59.802Z,4.00
2018-05-07T02:59:59.714Z,4.00
2018-05-07T03:00:59.626Z,8.00
2018-05-07T03:01:59.550Z,8.00
2018-05-07T03:02:59.464Z,8.00
2018-05-07T03:03:59.387Z,12.00
2018-05-07T03:04:59.315Z,12.00
2018-05-07T03:05:59.228Z,16.00
2018-05-07T03:06:59.153Z,20.00
2018-05-07T03:07:59.078Z,20.00
2018-05-07T03:08:58.989Z,24.00
2018-05-07T03:09:58.916Z,24.00
2018-05-07T03:10:58.831Z,32.00
2018-05-07T03:11:58.767Z,32.00
2018-05-07T03:12:58.665Z,36.00
2018-05-07T03:13:58.588Z,40.00
2018-05-07T03:14:58.508Z,44.00
2018-05-07T03:15:58.426Z,48.00
2018-05-07T03:16:58.348Z,56.00
2018-05-07T03:17:58.267Z,60.00
2018-05-07T03:18:58.179Z,68.00
2018-05-07T03:19:58.104Z,76.00
2018-05-07T03:20:58.027Z,80.00
2018-05-07T03:21:57.938Z,88.00
2018-05-07T03:22:57.864Z,96.00
2018-05-07T03:23:57.776Z,104.00
2018-05-07T03:24:57.707Z,116.00
2018-05-07T03:25:57.618Z,120.00
2018-05-07T03:26:57.539Z,132.00
2018-05-07T03:27:57.464Z,144.00
2018-05-07T03:28:57.383Z,152.00
2018-05-07T03:29:57.306Z,164.00
2018-05-07T03:30:57.222Z,172.00
2018-05-07T03:31:57.142Z,184.00
2018-05-07T03:32:57.065Z,200.00
2018-05-07T03:33:56.979Z,212.00
2018-05-07T03:34:56.894Z,220.00
2018-05-07T03:35:56.816Z,236.00
2018-05-07T03:36:56.731Z,248.00
2018-05-07T03:37:56.656Z,264.00
2018-05-07T03:38:56.571Z,276.00
2018-05-07T03:39:56.494Z,288.00
2018-05-07T03:40:56.418Z,304.00
2018-05-07T03:41:56.332Z,320.00
2018-05-07T03:42:56.257Z,328.00
2018-05-07T03:43:56.168Z,344.00
2018-05-07T03:44:56.092Z,360.00
2018-05-07T03:45:56.006Z,376.00
2018-05-07T03:46:55.930Z,388.00
2018-05-07T03:47:55.855Z,404.00
2018-05-07T03:48:55.770Z,420.00
2018-05-07T03:49:55.694Z,432.00
2018-05-07T03:50:55.607Z,448.00
2018-05-07T03:51:55.532Z,460.00
2018-05-07T03:52:55.456Z,476.00
2018-05-07T03:53:55.367Z,492.00
2018-05-07T03:54:55.286Z,504.00
2018-05-07T03:55:55.207Z,516.00
2018-05-07T03:56:55.122Z,532.00
2018-05-07T03:57:55.058Z,548.00
2018-05-07T03:58:54.970Z,556.00
2018-05-07T03:59:54.891Z,572.00
2018-05-07T04:00:54.806Z,584.00
2018-05-07T04:01:54.718Z,600.00
2018-05-07T04:02:54.644Z,616.00
2018-05-07T04:03:54.557Z,628.00
2018-05-07T04:04:54.485Z,640.00
2018-05-07T04:05:54.398Z,652.00
2018-05-07T04:06:54.321Z,668.00
2018-05-07T04:07:54.246Z,680.00
2018-05-07T04:08:54.157Z,696.00
2018-05-07T04:09:54.082Z,704.00
2018-05-07T04:10:53.994Z,720.00
2018-05-07T04:11:53.920Z,732.00
2018-05-07T04:12:53.833Z,744.00
2018-05-07T04:13:53.758Z,756.00
2018-05-07T04:14:53.672Z,772.00
2018-05-07T04:15:53.595Z,784.00
2018-05-07T04:16:53.522Z,796.00
2018-05-07T04:17:53.439Z,812.00
2018-05-07T04:18:53.361Z,828.00
2018-05-07T04:19:53.274Z,848.00
2018-05-07T04:20:53.196Z,860.00
2018-05-07T04:21:53.110Z,880.00
2018-05-07T04:22:53.035Z,932.00
2018-05-07T04:23:52.947Z,980.00
2018-05-07T04:24:52.886Z,992.00
2018-05-07T04:25:52.799Z,996.00
2018-05-07T04:26:52.711Z,1024.00
2018-05-07T04:27:52.637Z,1032.00
2018-05-07T04:28:52.548Z,1036.00
2018-05-07T04:29:52.486Z,1052.00
2018-05-07T04:30:52.386Z,1080.00
2018-05-07T04:31:52.312Z,1100.00
2018-05-07T04:32:52.235Z,1120.00
2018-05-07T04:33:52.147Z,1136.00
2018-05-07T04:34:52.084Z,1152.00
2018-05-07T04:35:51.985Z,1160.00
2018-05-07T04:36:51.912Z,1168.00
2018-05-07T04:37:51.826Z,1172.00
2018-05-07T04:38:51.749Z,1188.00
2018-05-07T04:39:51.675Z,1204.00
2018-05-07T04:40:51.586Z,1216.00
2018-05-07T04:41:51.515Z,1228.00
2018-05-07T04:42:51.436Z,1240.00
2018-05-07T04:43:51.349Z,1248.00
2018-05-07T04:44:51.277Z,1268.00
2018-05-07T04:45:51.186Z,1292.00
2018-05-07T04:46:51.111Z,1300.00
2018-05-07T04:47:51.036Z,1324.00
2018-05-07T04:48:50.953Z,1344.00
2018-05-07T04:49:50.875Z,1336.00
2018-05-07T04:50:50.788Z,1324.00
2018-05-07T04:51:50.715Z,1332.00
2018-05-07T04:52:50.626Z,1324.00
2018-05-07T04:53:50.548Z,1328.00
2018-05-07T04:54:50.475Z,1336.00
2018-05-07T04:55:50.388Z,1344.00
2018-05-07T04:56:50.315Z,1396.00
2018-05-07T04:57:50.228Z,1428.00
2018-05-07T04:58:50.152Z,1424.00
2018-05-07T04:59:50.077Z,1388.00
2018-05-07T05:00:49.994Z,1384.00
2018-05-07T05:01:49.915Z,1400.00
2018-05-07T05:02:49.838Z,1404.00
2018-05-07T05:03:49.751Z,1408.00
2018-05-07T05:04:49.677Z,1392.00
2018-05-07T05:05:49.602Z,1388.00
2018-05-07T05:06:49.516Z,1376.00
2018-05-07T05:07:49.441Z,1384.00
2018-05-07T05:08:49.351Z,1400.00
2018-05-07T05:09:49.275Z,1408.00
2018-05-07T05:10:49.201Z,1424.00
2018-05-07T05:11:49.114Z,1440.00
2018-05-07T05:12:49.047Z,1428.00
2018-05-07T05:13:48.966Z,1416.00
2018-05-07T05:14:48.878Z,1424.00
2018-05-07T05:15:48.804Z,1468.00
2018-05-07T05:16:48.728Z,1464.00
2018-05-07T05:17:48.641Z,1448.00
2018-05-07T05:18:48.567Z,1452.00
2018-05-07T05:19:48.492Z,1464.00
2018-05-07T05:20:48.402Z,1448.00
2018-05-07T05:21:48.329Z,1452.00
2018-05-07T05:22:48.253Z,1464.00
2018-05-07T05:23:48.165Z,1464.00
2018-05-07T05:24:48.093Z,1472.00
2018-05-07T05:25:48.017Z,1480.00
2018-05-07T05:26:47.930Z,1488.00
2018-05-07T05:27:47.856Z,1516.00
2018-05-07T05:28:47.777Z,1520.00
2018-05-07T05:29:47.703Z,1516.00
2018-05-07T05:30:47.616Z,1496.00
2018-05-07T05:31:47.541Z,1508.00
2018-05-07T05:32:47.453Z,1508.00
2018-05-07T05:33:47.379Z,1516.00
2018-05-07T05:34:47.304Z,1524.00
2018-05-07T05:35:47.217Z,1524.00
2018-05-07T05:36:47.143Z,1532.00
2018-05-07T05:37:47.069Z,1540.00
2018-05-07T05:38:46.983Z,1548.00
2018-05-07T05:39:46.909Z,1556.00
2018-05-07T05:40:46.829Z,1560.00
2018-05-07T05:41:46.755Z,1576.00
2018-05-07T05:42:46.669Z,1584.00
2018-05-07T05:43:46.691Z,1596.00
2018-05-07T05:44:46.525Z,1608.00
2018-05-07T05:45:46.433Z,1616.00
2018-05-07T05:46:46.357Z,1628.00
2018-05-07T05:47:46.295Z,1628.00
2018-05-07T05:48:46.209Z,1636.00
2018-05-07T05:49:46.128Z,1644.00
2018-05-07T05:50:46.046Z,1648.00
2018-05-07T05:51:45.972Z,1652.00
2018-05-07T05:52:45.894Z,1656.00
2018-05-07T05:53:45.805Z,1660.00
2018-05-07T05:54:45.732Z,1660.00
2018-05-07T05:55:45.655Z,1672.00
2018-05-07T05:56:45.572Z,1672.00
2018-05-07T05:57:45.496Z,1676.00
2018-05-07T05:58:45.424Z,1684.00
2018-05-07T05:59:45.346Z,1696.00
2018-05-07T06:00:45.257Z,1700.00
2018-05-07T06:01:45.182Z,1704.00
2018-05-07T06:02:45.107Z,1716.00
2018-05-07T06:03:45.128Z,1732.00
2018-05-07T06:04:44.945Z,1744.00
2018-05-07T06:05:44.871Z,1752.00
2018-05-07T06:06:44.796Z,1764.00
2018-05-07T06:07:44.721Z,1768.00
2018-05-07T06:08:44.635Z,1788.00
2018-05-07T06:09:44.561Z,1784.00
2018-05-07T06:10:44.485Z,1796.00
2018-05-07T06:11:44.411Z,1800.00
2018-05-07T06:12:44.322Z,1812.00
2018-05-07T06:13:44.246Z,1816.00
2018-05-07T06:14:44.334Z,1824.00
2018-05-07T06:15:44.096Z,1836.00
2018-05-07T06:16:44.010Z,1852.00
2018-05-07T06:17:43.936Z,1860.00
2018-05-07T06:18:43.860Z,1868.00
2018-05-07T06:19:43.786Z,1876.00
2018-05-07T06:20:43.700Z,1888.00
2018-05-07T06:21:43.624Z,1896.00
2018-05-07T06:22:43.552Z,1904.00
2018-05-07T06:23:43.475Z,1916.00
2018-05-07T06:24:43.386Z,1928.00
2018-05-07T06:25:43.315Z,1940.00
2018-05-07T06:26:43.234Z,1964.00
2018-05-07T06:27:43.174Z,1984.00
2018-05-07T06:28:43.089Z,1984.00
2018-05-07T06:29:43.009Z,1996.00
2018-05-07T06:30:42.960Z,2016.00
2018-05-07T06:31:42.851Z,2036.00
2018-05-07T06:32:42.776Z,2052.00
2018-05-07T06:33:42.699Z,2072.00
2018-05-07T06:34:42.611Z,2100.00
2018-05-07T06:35:42.535Z,2100.00
2018-05-07T06:36:42.463Z,2128.00
2018-05-07T06:37:42.385Z,2148.00
2018-05-07T06:38:42.311Z,2156.00
2018-05-07T06:39:42.228Z,2304.00
2018-05-07T06:40:42.163Z,2376.00
2018-05-07T06:41:42.076Z,2292.00
2018-05-07T06:42:42.004Z,2388.00
2018-05-07T06:43:41.928Z,2424.00
2018-05-07T06:44:41.838Z,2372.00
2018-05-07T06:45:41.827Z,2400.00
2018-05-07T06:46:41.689Z,2396.00
2018-05-07T06:47:41.614Z,2496.00
2018-05-07T06:48:41.539Z,2768.00
2018-05-07T06:49:41.464Z,2812.00
2018-05-07T06:50:41.378Z,2640.00
2018-05-07T06:51:41.306Z,2528.00
2018-05-07T06:52:41.228Z,2616.00
2018-05-07T06:53:41.153Z,2556.00
2018-05-07T06:54:41.087Z,2568.00
2018-05-07T06:55:41.003Z,2592.00
2018-05-07T06:56:40.914Z,2652.00
2018-05-07T06:57:40.851Z,2720.00
2018-05-07T06:58:40.764Z,2768.00
2018-05-07T06:59:40.692Z,2844.00
2018-05-07T07:00:40.616Z,2856.00
2018-05-07T07:01:40.541Z,2892.00
2018-05-07T07:02:40.588Z,2932.00
2018-05-07T07:03:40.380Z,2996.00
2018-05-07T07:04:40.302Z,3040.00
2018-05-07T07:05:40.227Z,3124.00
2018-05-07T07:06:40.153Z,3168.00
2018-05-07T07:07:40.078Z,3196.00
2018-05-07T07:08:40.059Z,3272.00
2018-05-07T07:09:39.931Z,3332.00
2018-05-07T07:10:39.854Z,3396.00
2018-05-07T07:11:39.781Z,3444.00
2018-05-07T07:12:39.694Z,3512.00
2018-05-07T07:13:39.616Z,3628.00
2018-05-07T07:14:39.541Z,3708.00
2018-05-07T07:15:39.467Z,3964.00
2018-05-07T07:17:21.518Z,5528.00
2018-05-07T07:18:21.442Z,10012.00
2018-05-07T07:19:21.354Z,11188.00
2018-05-07T07:20:21.282Z,11184.00
2018-05-07T07:21:21.206Z,15820.00
2018-05-07T07:22:21.147Z,21120.00
2018-05-07T07:23:21.056Z,24736.00
2018-05-07T07:24:20.980Z,34272.00
2018-05-07T07:25:20.905Z,43840.00
2018-05-07T07:26:20.833Z,46784.00
2018-05-07T07:27:20.756Z,43936.00
2018-05-07T07:28:20.715Z,37152.00
2018-05-07T07:29:20.606Z,30176.00
2018-05-07T07:30:20.532Z,28352.00
2018-05-07T07:31:20.463Z,28384.00
2018-05-07T07:32:20.382Z,26752.00
2018-05-07T08:16:11.048Z,6620.00
2018-05-07T08:17:09.972Z,6652.00
2018-05-07T08:22:22.675Z,6844.00
2018-05-07T08:23:22.613Z,6872.00
2018-05-07T08:24:22.549Z,6888.00
2018-05-07T08:25:22.488Z,6916.00
2018-05-07T08:26:22.415Z,6916.00
2018-05-07T08:27:22.350Z,6928.00
2018-05-07T08:28:22.290Z,6952.00
2018-05-07T08:29:22.212Z,7024.00
2018-05-07T08:30:22.170Z,6996.00
2018-05-07T08:31:22.089Z,7004.00
2018-05-07T08:32:22.024Z,7048.00
2018-05-07T08:33:21.952Z,7080.00
2018-05-07T08:34:21.890Z,7200.00
2018-05-07T08:35:21.826Z,7384.00
2018-05-07T08:36:21.764Z,7552.00
2018-05-07T08:37:21.709Z,7764.00
2018-05-07T08:38:21.626Z,7916.00
2018-05-07T08:39:21.565Z,8028.00
2018-05-07T08:40:21.502Z,8108.00
2018-05-07T08:41:21.438Z,8204.00
2018-05-07T08:42:21.367Z,8292.00
2018-05-07T08:43:21.300Z,8360.00
2018-05-07T08:44:21.239Z,8460.00
2018-05-07T08:45:21.177Z,8544.00
2018-05-07T08:46:21.105Z,8660.00
2018-05-07T08:47:21.040Z,8756.00
2018-05-07T08:48:20.978Z,8852.00
2018-05-07T08:49:20.915Z,8992.00
2018-05-07T08:50:20.840Z,9116.00
2018-05-07T08:51:20.775Z,9408.00
2018-05-07T08:52:20.715Z,9664.00
2018-05-07T08:53:20.652Z,9836.00
2018-05-07T08:54:20.801Z,10088.00
2018-05-07T08:55:20.515Z,10276.00
2018-05-07T08:56:20.452Z,10488.00
2018-05-07T08:57:20.392Z,10576.00
2018-05-07T08:58:20.328Z,10708.00
2018-05-07T08:59:20.256Z,10896.00
2018-05-07T09:00:20.199Z,11100.00
2018-05-07T09:01:20.130Z,11192.00
2018-05-07T09:02:20.059Z,11532.00
2018-05-07T09:03:19.991Z,11688.00
2018-05-07T09:04:19.927Z,11744.00
2018-05-07T09:05:19.868Z,11880.00
2018-05-07T09:06:19.805Z,12100.00
2018-05-07T09:07:19.731Z,12240.00
2018-05-07T09:08:19.671Z,12412.00
2018-05-07T09:09:19.605Z,12464.00
2018-05-07T09:10:19.544Z,12672.00
2018-05-07T09:11:19.468Z,12880.00
2018-05-07T09:12:19.406Z,13024.00
2018-05-07T09:13:19.341Z,13008.00
2018-05-07T09:14:19.279Z,13056.00
2018-05-07T09:15:19.313Z,13340.00
2018-05-07T09:16:19.142Z,13476.00
2018-05-07T09:17:19.081Z,13628.00
2018-05-07T09:18:19.019Z,13736.00
2018-05-07T09:19:18.957Z,13872.00
2018-05-07T09:20:18.899Z,14012.00
2018-05-07T09:21:18.830Z,14336.00
2018-05-07T09:22:18.757Z,14892.00
2018-05-07T09:23:18.693Z,15024.00
2018-05-07T09:24:18.632Z,14756.00
2018-05-07T09:25:18.570Z,14884.00
2018-05-07T09:26:18.512Z,15060.00
2018-05-07T09:27:18.447Z,16864.00
2018-05-07T09:28:18.382Z,17920.00
2018-05-07T09:29:18.318Z,18816.00
2018-05-07T09:30:18.244Z,18816.00
2018-05-07T09:31:18.181Z,17984.00
2018-05-07T09:32:18.119Z,18016.00
2018-05-07T09:33:18.059Z,18848.00
2018-05-07T09:34:17.996Z,19488.00
2018-05-07T09:35:17.933Z,19136.00
2018-05-07T10:15:54.910Z,4300.00
2018-05-07T10:39:22.876Z,6580.00
2018-05-07T10:57:31.677Z,66880.00
2018-05-07T10:59:55.864Z,65568.00
2018-05-07T11:00:55.802Z,66880.00
2018-05-07T11:01:55.739Z,67872.00
2018-05-07T11:02:55.680Z,71328.00
2018-05-07T11:03:55.620Z,73632.00
2018-05-07T11:04:55.541Z,74048.00
2018-05-07T11:05:55.480Z,73760.00
2018-05-07T11:08:19.679Z,79360.00
2018-05-07T11:11:26.284Z,87200.00
2018-05-07T11:12:26.017Z,90432.00
2018-05-07T11:13:25.955Z,93824.00
2018-05-07T11:14:25.896Z,97216.00
2018-05-07T11:15:26.182Z,98464.00
2018-05-07T11:16:25.769Z,97248.00
2018-05-07T11:17:25.707Z,97760.00
2018-05-07T11:18:25.641Z,100256.00
2018-05-07T11:20:49.841Z,102048.00
2018-05-07T11:21:49.980Z,100512.00
2018-05-07T11:24:13.982Z,111200.00
2018-05-07T11:25:13.917Z,111776.00
2018-05-07T11:27:40.742Z,120768.00
2018-05-07T11:28:38.055Z,123744.00
2018-05-07T11:29:38.007Z,125600.00
2018-05-07T11:30:37.933Z,127872.00
2018-05-07T11:31:37.870Z,133696.00
2018-05-07T11:32:37.808Z,134304.00
2018-05-07T11:33:37.745Z,136896.00
2018-05-07T11:34:37.682Z,132416.00
2018-05-07T11:35:37.618Z,131584.00
2018-05-07T11:36:37.557Z,132064.00
2018-05-07T11:37:37.507Z,135680.00
2018-05-07T11:38:37.438Z,128896.00
2018-05-07T11:39:37.375Z,123424.00
2018-05-07T11:40:37.309Z,122240.00
2018-05-07T11:41:37.248Z,118240.00
2018-05-07T11:42:37.197Z,114592.00
2018-05-07T11:43:37.134Z,116992.00
2018-05-07T11:44:37.072Z,117152.00
2018-05-07T11:45:37.010Z,109856.00
2018-05-07T11:46:36.944Z,106848.00
2018-05-07T11:47:36.988Z,104640.00
2018-05-07T11:48:36.832Z,107168.00
2018-05-07T11:49:36.758Z,103200.00
2018-05-07T11:50:36.699Z,101568.00
2018-05-07T11:51:36.636Z,100288.00
2018-05-07T11:52:36.572Z,101856.00
2018-05-07T11:53:36.516Z,102368.00
2018-05-07T11:54:36.454Z,104288.00
2018-05-07T11:55:36.384Z,108544.00
2018-05-07T11:56:36.322Z,109824.00
2018-05-07T11:57:36.259Z,111136.00
2018-05-07T11:58:36.196Z,112704.00
2018-05-07T11:59:36.135Z,113920.00
2018-05-07T12:00:36.071Z,112480.00
2018-05-07T12:01:36.009Z,110560.00
2018-05-07T12:02:36.038Z,107808.00
2018-05-07T12:03:35.887Z,106688.00
2018-05-07T12:04:35.824Z,103360.00
2018-05-07T12:05:35.761Z,103104.00
2018-05-07T12:06:35.697Z,100064.00
2018-05-07T12:07:35.636Z,99776.00
2018-05-07T12:08:35.585Z,99456.00
2018-05-07T12:09:35.518Z,95872.00
2018-05-07T12:10:35.450Z,92384.00
2018-05-07T12:11:35.387Z,89568.00
2018-05-07T12:12:35.324Z,89792.00
2018-05-07T12:13:35.262Z,90496.00
2018-05-07T12:14:35.200Z,87328.00
2018-05-07T12:15:35.138Z,86432.00
2018-05-07T12:16:35.075Z,85408.00
2018-05-07T12:17:35.014Z,83872.00
2018-05-07T12:18:34.949Z,83520.00
2018-05-07T12:19:34.887Z,80416.00
2018-05-07T12:20:34.824Z,79392.00
2018-05-07T12:21:34.761Z,79296.00
2018-05-07T12:22:34.700Z,79168.00
2018-05-07T12:23:34.639Z,80000.00
2018-05-07T12:24:34.576Z,77216.00
2018-05-07T12:25:34.514Z,78752.00
2018-05-07T12:26:34.451Z,75648.00
2018-05-07T12:27:34.390Z,76800.00
2018-05-07T12:28:34.324Z,75776.00
2018-05-07T12:29:34.263Z,75232.00
2018-05-07T12:30:34.206Z,77152.00
2018-05-07T12:31:34.248Z,74976.00
2018-05-07T12:32:34.077Z,75456.00
2018-05-07T12:33:34.016Z,75008.00
2018-05-07T12:34:33.952Z,73120.00
2018-05-07T12:35:33.892Z,73568.00
2018-05-07T12:36:33.826Z,74016.00
2018-05-07T12:37:33.792Z,75712.00
2018-05-07T12:38:33.716Z,74912.00
2018-05-07T12:39:33.654Z,73984.00
2018-05-07T12:40:33.593Z,74016.00
2018-05-07T12:41:33.528Z,71552.00
2018-05-07T12:42:33.464Z,70560.00
2018-05-07T12:43:33.404Z,71200.00
2018-05-07T12:44:33.340Z,69632.00
2018-05-07T12:45:33.276Z,70464.00
2018-05-07T12:46:33.215Z,70464.00
2018-05-07T12:47:33.152Z,70304.00
2018-05-07T12:48:33.090Z,69344.00
2018-05-07T12:49:33.028Z,67936.00
2018-05-07T12:50:32.967Z,67296.00
2018-05-07T12:51:32.905Z,65088.00
2018-05-07T12:52:32.843Z,66016.00
2018-05-07T12:53:32.779Z,67776.00
2018-05-07T12:54:32.716Z,66368.00
2018-05-07T12:55:32.666Z,66176.00
2018-05-07T12:56:32.594Z,66560.00
2018-05-07T12:57:32.528Z,65312.00
2018-05-07T12:58:32.468Z,64384.00
2018-05-07T12:59:32.418Z,65760.00
2018-05-07T13:00:32.343Z,65568.00
2018-05-07T13:01:32.294Z,64864.00
2018-05-07T13:02:32.218Z,64448.00
2018-05-07T13:03:32.156Z,63424.00
2018-05-07T13:04:32.095Z,63648.00
2018-05-07T13:05:32.031Z,65568.00
2018-05-07T13:06:31.967Z,65472.00
2018-05-07T13:07:31.906Z,64384.00
2018-05-07T13:08:31.842Z,63200.00
2018-05-07T13:09:31.780Z,64032.00
2018-05-07T13:10:31.731Z,64352.00
2018-05-07T13:11:31.758Z,64288.00
2018-05-07T13:12:31.607Z,63808.00
2018-05-07T13:13:31.545Z,62592.00
2018-05-07T13:14:31.480Z,61984.00
2018-05-07T13:15:31.418Z,62432.00
2018-05-07T13:16:31.356Z,62112.00
2018-05-07T13:17:31.298Z,60800.00
2018-05-07T13:18:31.230Z,59424.00
2018-05-07T13:19:31.168Z,57632.00
2018-05-07T13:20:31.105Z,58592.00
2018-05-07T13:21:31.044Z,58368.00
2018-05-07T13:22:30.983Z,56224.00
2018-05-07T13:23:30.921Z,54816.00
2018-05-07T13:24:30.872Z,54784.00
2018-05-07T13:25:30.800Z,54368.00
2018-05-07T13:26:30.733Z,54336.00
2018-05-07T13:27:30.669Z,53536.00
2018-05-07T13:28:30.607Z,53152.00
2018-05-07T13:29:30.544Z,51008.00
2018-05-07T13:30:30.483Z,37472.00
2018-05-07T13:31:30.423Z,11160.00
2018-05-07T13:32:30.372Z,3864.00
2018-05-07T13:33:30.300Z,3460.00
2018-05-07T13:34:30.234Z,3428.00
2018-05-07T13:35:30.172Z,3384.00
2018-05-07T13:36:30.115Z,3324.00
2018-05-07T13:37:30.036Z,3240.00
2018-05-07T13:38:29.971Z,3148.00
2018-05-07T13:39:29.907Z,3104.00
2018-05-07T13:40:29.846Z,3072.00
2018-05-07T13:41:29.782Z,3044.00
2018-05-07T13:42:29.722Z,3032.00
2018-05-07T13:43:29.647Z,3020.00
2018-05-07T13:44:29.585Z,2976.00
2018-05-07T13:45:29.522Z,2980.00
2018-05-07T13:46:29.457Z,2944.00
2018-05-07T13:47:29.383Z,2916.00
2018-05-07T13:48:29.322Z,2892.00
2018-05-07T13:49:29.247Z,2932.00
2018-05-07T13:50:29.183Z,2924.00
2018-05-07T13:51:29.121Z,2932.00
2018-05-07T13:52:29.047Z,2932.00
2018-05-07T13:53:28.986Z,2924.00
2018-05-07T13:54:28.910Z,2872.00
2018-05-07T13:55:28.849Z,2852.00
2018-05-07T13:56:28.775Z,2836.00
2018-05-07T13:57:28.711Z,2828.00
2018-05-07T13:58:28.633Z,2828.00
2018-05-07T13:59:28.573Z,2828.00
2018-05-07T14:00:28.498Z,2800.00
2018-05-07T14:01:28.439Z,2792.00
2018-05-07T14:02:28.362Z,2768.00
2018-05-07T14:03:28.300Z,2740.00
2018-05-07T14:04:28.225Z,2704.00
2018-05-07T14:05:28.162Z,2640.00
2018-05-07T14:06:28.099Z,2580.00
2018-05-07T14:07:28.012Z,2560.00
2018-05-07T14:08:27.972Z,2608.00
2018-05-07T14:09:27.875Z,2636.00
2018-05-07T14:10:27.799Z,2632.00
2018-05-07T14:11:27.736Z,2604.00
2018-05-07T14:12:27.661Z,2584.00
2018-05-07T14:13:27.585Z,2568.00
2018-05-07T14:14:27.528Z,2544.00
2018-05-07T14:15:27.452Z,2524.00
2018-05-07T14:16:27.376Z,2512.00
2018-05-07T14:17:27.313Z,2520.00
2018-05-07T14:18:27.256Z,2528.00
2018-05-07T14:19:27.161Z,2528.00
2018-05-07T14:20:27.104Z,2532.00
2018-05-07T14:21:27.026Z,2524.00
2018-05-07T14:22:26.950Z,2528.00
2018-05-07T14:23:26.887Z,2532.00
2018-05-07T14:24:26.812Z,2528.00
2018-05-07T14:25:26.738Z,2508.00
2018-05-07T14:26:26.679Z,2496.00
2018-05-07T14:27:26.602Z,2492.00
2018-05-07T14:28:26.528Z,2488.00
2018-05-07T14:29:26.455Z,2496.00
2018-05-07T14:30:26.387Z,2472.00
2018-05-07T14:31:26.315Z,2444.00
2018-05-07T14:32:26.239Z,2428.00
2018-05-07T14:33:26.258Z,2416.00